Pagrindinis puslapis
METAR-TAF:

METAR-TAF

Oro uostai :

Ansi, Prancūzija

platuma: 45-55-45N, ilguma: 006-05-56E, Aukštis: 463 m

Dabartinis oras

Ataskaita buvo paskelbta 16 minutes, ne 11:30 UTC
Vėjas 3 kt nuo kintamojo kryptimis
Temperatūra 22°C
Drėgmė 50%
Slėgis 1018 hPa
Matomumas 10 km arba daugiau
nėra debesų žemiau 1500 m ir nėra kamuolinių lietaus debesų

METAR: LFLP 211130Z AUTO VRB03KT CAVOK 22/11 Q1018 NOSIG

Laikas: 13:46 (11:46 UTC)

Prognozė

Ataskaita buvo paskelbta 3 valandos ir 46 minutes, ne 08:00 UTC
Prognozė galioja nuo 21 metu 09 UTC su 22 metu 09 UTC
Vėjas 2 kt nuo kintamojo kryptimis
Matomumas 10 km arba daugiau
nėra debesų žemiau 1500 m ir nėra kamuolinių lietaus debesų

TAF: LFLP 210800Z 2109/2209 VRB02KT CAVOK

Orai ataskaitas ir orų prognozės (METAR, TAF).

turimą stotys yra geltonos ir raudonos taškus žemėlapyje.

Perkelti pele per norėdami pamatyti stoties vardą.

Tada spustelėkite, norėdami matyti oro stebėjimo ir prognozės.

Norėdami pakeisti žemėlapį: spustelėkite ant žalios mygtukų su juodo kryžiaus žemyn,; žalią mygtuką su brūkšneliu, jei norite nutolinti; arba žalių rodyklių gretimoms žemėlapius.


METAR-TAF: